sensor_id;sensor_type;location;lat;lon;timestamp;temperature;humidity
25046;DHT22;13044;49.304;12.840;2022-11-15T00:01:08;4.90;99.90
25046;DHT22;13044;49.304;12.840;2022-11-15T00:03:36;4.90;99.90
25046;DHT22;13044;49.304;12.840;2022-11-15T00:06:04;4.90;99.90
25046;DHT22;13044;49.304;12.840;2022-11-15T00:08:32;4.90;99.90
25046;DHT22;13044;49.304;12.840;2022-11-15T00:11:01;4.80;99.90
25046;DHT22;13044;49.304;12.840;2022-11-15T00:13:30;4.90;99.90
25046;DHT22;13044;49.304;12.840;2022-11-15T00:15:58;4.80;99.90
25046;DHT22;13044;49.304;12.840;2022-11-15T00:18:27;4.80;99.90
25046;DHT22;13044;49.304;12.840;2022-11-15T00:20:55;4.80;99.90
25046;DHT22;13044;49.304;12.840;2022-11-15T00:23:22;4.80;99.90
25046;DHT22;13044;49.304;12.840;2022-11-15T00:25:57;4.80;99.90
25046;DHT22;13044;49.304;12.840;2022-11-15T00:28:25;4.80;99.90
25046;DHT22;13044;49.304;12.840;2022-11-15T00:30:52;4.80;99.90
25046;DHT22;13044;49.304;12.840;2022-11-15T00:33:19;4.80;99.90
25046;DHT22;13044;49.304;12.840;2022-11-15T00:35:46;4.80;99.90
25046;DHT22;13044;49.304;12.840;2022-11-15T00:38:13;4.70;99.90
25046;DHT22;13044;49.304;12.840;2022-11-15T00:40:41;4.70;99.90
25046;DHT22;13044;49.304;12.840;2022-11-15T00:43:08;4.60;99.90
25046;DHT22;13044;49.304;12.840;2022-11-15T00:45:35;4.60;99.90
25046;DHT22;13044;49.304;12.840;2022-11-15T00:48:02;4.60;99.90
25046;DHT22;13044;49.304;12.840;2022-11-15T00:50:29;4.60;99.90
25046;DHT22;13044;49.304;12.840;2022-11-15T00:52:56;4.60;99.90
25046;DHT22;13044;49.304;12.840;2022-11-15T00:55:23;4.60;99.90
25046;DHT22;13044;49.304;12.840;2022-11-15T00:57:50;4.60;99.90
25046;DHT22;13044;49.304;12.840;2022-11-15T01:00:17;4.60;99.90
25046;DHT22;13044;49.304;12.840;2022-11-15T01:02:44;4.60;99.90
25046;DHT22;13044;49.304;12.840;2022-11-15T01:05:11;4.60;99.90
25046;DHT22;13044;49.304;12.840;2022-11-15T01:07:38;4.50;99.90
25046;DHT22;13044;49.304;12.840;2022-11-15T01:10:05;4.50;99.90
25046;DHT22;13044;49.304;12.840;2022-11-15T01:12:33;4.40;99.90
25046;DHT22;13044;49.304;12.840;2022-11-15T01:15:00;4.30;99.90
25046;DHT22;13044;49.304;12.840;2022-11-15T01:17:27;4.30;99.90
25046;DHT22;13044;49.304;12.840;2022-11-15T01:19:54;4.40;99.90
25046;DHT22;13044;49.304;12.840;2022-11-15T01:22:21;4.40;99.90
25046;DHT22;13044;49.304;12.840;2022-11-15T01:24:50;4.40;99.90
25046;DHT22;13044;49.304;12.840;2022-11-15T01:27:17;4.40;99.90
25046;DHT22;13044;49.304;12.840;2022-11-15T01:29:44;4.40;99.90
25046;DHT22;13044;49.304;12.840;2022-11-15T01:32:11;4.40;99.90
25046;DHT22;13044;49.304;12.840;2022-11-15T01:34:38;4.50;99.90
25046;DHT22;13044;49.304;12.840;2022-11-15T01:37:05;4.40;99.90
25046;DHT22;13044;49.304;12.840;2022-11-15T01:39:32;4.40;99.90
25046;DHT22;13044;49.304;12.840;2022-11-15T01:41:59;4.40;99.90
25046;DHT22;13044;49.304;12.840;2022-11-15T01:44:51;4.40;99.90
25046;DHT22;13044;49.304;12.840;2022-11-15T01:47:41;4.40;99.90
25046;DHT22;13044;49.304;12.840;2022-11-15T01:50:14;4.40;99.90
25046;DHT22;13044;49.304;12.840;2022-11-15T01:52:43;4.40;99.90
25046;DHT22;13044;49.304;12.840;2022-11-15T01:55:18;4.40;99.90
25046;DHT22;13044;49.304;12.840;2022-11-15T01:57:50;4.40;99.90
25046;DHT22;13044;49.304;12.840;2022-11-15T02:00:20;4.40;99.90
25046;DHT22;13044;49.304;12.840;2022-11-15T02:02:47;4.40;99.90
25046;DHT22;13044;49.304;12.840;2022-11-15T02:05:15;4.30;99.90
25046;DHT22;13044;49.304;12.840;2022-11-15T02:07:42;4.30;99.90
25046;DHT22;13044;49.304;12.840;2022-11-15T02:10:17;4.30;99.90
25046;DHT22;13044;49.304;12.840;2022-11-15T02:12:46;4.30;99.90
25046;DHT22;13044;49.304;12.840;2022-11-15T02:15:14;4.30;99.90
25046;DHT22;13044;49.304;12.840;2022-11-15T02:17:53;4.20;99.90
25046;DHT22;13044;49.304;12.840;2022-11-15T02:20:41;4.30;99.90
25046;DHT22;13044;49.304;12.840;2022-11-15T02:26:24;4.30;99.90
25046;DHT22;13044;49.304;12.840;2022-11-15T02:29:39;4.30;99.90
25046;DHT22;13044;49.304;12.840;2022-11-15T02:41:01;4.20;99.90
25046;DHT22;13044;49.304;12.840;2022-11-15T02:43:59;4.20;99.90
25046;DHT22;13044;49.304;12.840;2022-11-15T02:46:41;4.10;99.90
25046;DHT22;13044;49.304;12.840;2022-11-15T02:49:33;4.10;99.90
25046;DHT22;13044;49.304;12.840;2022-11-15T02:52:01;4.10;99.90
25046;DHT22;13044;49.304;12.840;2022-11-15T02:54:31;4.10;99.90
25046;DHT22;13044;49.304;12.840;2022-11-15T02:57:15;4.20;99.90
25046;DHT22;13044;49.304;12.840;2022-11-15T03:00:06;4.20;99.90
25046;DHT22;13044;49.304;12.840;2022-11-15T03:08:31;4.20;99.90
25046;DHT22;13044;49.304;12.840;2022-11-15T03:11:11;4.20;99.90
25046;DHT22;13044;49.304;12.840;2022-11-15T03:19:57;4.00;99.90
25046;DHT22;13044;49.304;12.840;2022-11-15T03:22:29;4.00;99.90
25046;DHT22;13044;49.304;12.840;2022-11-15T03:25:03;4.00;99.90
25046;DHT22;13044;49.304;12.840;2022-11-15T03:27:38;4.00;99.90
25046;DHT22;13044;49.304;12.840;2022-11-15T03:30:08;4.00;99.90
25046;DHT22;13044;49.304;12.840;2022-11-15T03:32:40;4.00;99.90
25046;DHT22;13044;49.304;12.840;2022-11-15T03:35:14;4.00;99.90
25046;DHT22;13044;49.304;12.840;2022-11-15T03:37:51;4.00;99.90
25046;DHT22;13044;49.304;12.840;2022-11-15T03:40:24;4.00;99.90
25046;DHT22;13044;49.304;12.840;2022-11-15T03:43:24;4.00;99.90
25046;DHT22;13044;49.304;12.840;2022-11-15T03:46:40;4.10;99.90
25046;DHT22;13044;49.304;12.840;2022-11-15T03:49:17;4.10;99.90
25046;DHT22;13044;49.304;12.840;2022-11-15T03:51:48;4.10;99.90
25046;DHT22;13044;49.304;12.840;2022-11-15T03:54:15;4.10;99.90
25046;DHT22;13044;49.304;12.840;2022-11-15T03:56:42;4.10;99.90
25046;DHT22;13044;49.304;12.840;2022-11-15T03:59:09;4.10;99.90
25046;DHT22;13044;49.304;12.840;2022-11-15T04:01:36;4.10;99.90
25046;DHT22;13044;49.304;12.840;2022-11-15T04:04:03;4.10;99.90
25046;DHT22;13044;49.304;12.840;2022-11-15T04:06:30;4.10;99.90
25046;DHT22;13044;49.304;12.840;2022-11-15T04:08:57;4.00;99.90
25046;DHT22;13044;49.304;12.840;2022-11-15T04:11:24;4.00;99.90
25046;DHT22;13044;49.304;12.840;2022-11-15T04:13:51;4.00;99.90
25046;DHT22;13044;49.304;12.840;2022-11-15T04:16:18;3.90;99.90
25046;DHT22;13044;49.304;12.840;2022-11-15T04:18:44;3.90;99.90
25046;DHT22;13044;49.304;12.840;2022-11-15T04:21:31;4.00;99.90
25046;DHT22;13044;49.304;12.840;2022-11-15T04:24:17;4.00;99.90
25046;DHT22;13044;49.304;12.840;2022-11-15T04:26:44;4.00;99.90
25046;DHT22;13044;49.304;12.840;2022-11-15T04:29:11;4.00;99.90
25046;DHT22;13044;49.304;12.840;2022-11-15T04:31:56;4.00;99.90
25046;DHT22;13044;49.304;12.840;2022-11-15T04:34:23;4.00;99.90
25046;DHT22;13044;49.304;12.840;2022-11-15T04:36:50;4.00;99.90
25046;DHT22;13044;49.304;12.840;2022-11-15T04:39:35;3.90;99.90
25046;DHT22;13044;49.304;12.840;2022-11-15T04:42:03;3.90;99.90
25046;DHT22;13044;49.304;12.840;2022-11-15T04:44:30;3.90;99.90
25046;DHT22;13044;49.304;12.840;2022-11-15T04:46:57;3.90;99.90
25046;DHT22;13044;49.304;12.840;2022-11-15T04:49:24;3.90;99.90
25046;DHT22;13044;49.304;12.840;2022-11-15T04:51:51;3.80;99.90
25046;DHT22;13044;49.304;12.840;2022-11-15T04:54:18;3.80;99.90
25046;DHT22;13044;49.304;12.840;2022-11-15T04:56:45;3.80;99.90
25046;DHT22;13044;49.304;12.840;2022-11-15T04:59:12;3.80;99.90
25046;DHT22;13044;49.304;12.840;2022-11-15T05:01:39;3.80;99.90
25046;DHT22;13044;49.304;12.840;2022-11-15T05:04:10;3.80;99.90
25046;DHT22;13044;49.304;12.840;2022-11-15T05:06:49;3.80;99.90
25046;DHT22;13044;49.304;12.840;2022-11-15T05:09:20;3.70;99.90
25046;DHT22;13044;49.304;12.840;2022-11-15T05:11:48;3.70;99.90
25046;DHT22;13044;49.304;12.840;2022-11-15T05:14:15;3.70;99.90
25046;DHT22;13044;49.304;12.840;2022-11-15T05:16:43;3.60;99.90
25046;DHT22;13044;49.304;12.840;2022-11-15T05:19:10;3.70;99.90
25046;DHT22;13044;49.304;12.840;2022-11-15T05:21:37;3.70;99.90
25046;DHT22;13044;49.304;12.840;2022-11-15T05:24:04;3.70;99.90
25046;DHT22;13044;49.304;12.840;2022-11-15T05:26:32;3.60;99.90
25046;DHT22;13044;49.304;12.840;2022-11-15T05:28:59;3.60;99.90
25046;DHT22;13044;49.304;12.840;2022-11-15T05:31:26;3.60;99.90
25046;DHT22;13044;49.304;12.840;2022-11-15T05:33:55;3.60;99.90
25046;DHT22;13044;49.304;12.840;2022-11-15T05:36:36;3.60;99.90
25046;DHT22;13044;49.304;12.840;2022-11-15T05:39:06;3.60;99.90
25046;DHT22;13044;49.304;12.840;2022-11-15T05:41:44;3.60;99.90
25046;DHT22;13044;49.304;12.840;2022-11-15T05:44:19;3.60;99.90
25046;DHT22;13044;49.304;12.840;2022-11-15T05:46:49;3.60;99.90
25046;DHT22;13044;49.304;12.840;2022-11-15T05:49:20;3.60;99.90
25046;DHT22;13044;49.304;12.840;2022-11-15T05:51:49;3.60;99.90
25046;DHT22;13044;49.304;12.840;2022-11-15T05:54:19;3.60;99.90
25046;DHT22;13044;49.304;12.840;2022-11-15T05:56:46;3.60;99.90
25046;DHT22;13044;49.304;12.840;2022-11-15T05:59:13;3.60;99.90
25046;DHT22;13044;49.304;12.840;2022-11-15T06:01:41;3.60;99.90
25046;DHT22;13044;49.304;12.840;2022-11-15T06:04:08;3.60;99.90
25046;DHT22;13044;49.304;12.840;2022-11-15T06:06:35;3.60;99.90
25046;DHT22;13044;49.304;12.840;2022-11-15T06:09:02;3.60;99.90
25046;DHT22;13044;49.304;12.840;2022-11-15T06:11:29;3.50;99.90
25046;DHT22;13044;49.304;12.840;2022-11-15T06:13:56;3.50;99.90
25046;DHT22;13044;49.304;12.840;2022-11-15T06:16:23;3.50;99.90
25046;DHT22;13044;49.304;12.840;2022-11-15T06:18:50;3.50;99.90
25046;DHT22;13044;49.304;12.840;2022-11-15T06:21:17;3.50;99.90
25046;DHT22;13044;49.304;12.840;2022-11-15T06:23:44;3.50;99.90
25046;DHT22;13044;49.304;12.840;2022-11-15T06:26:11;3.60;99.90
25046;DHT22;13044;49.304;12.840;2022-11-15T06:28:38;3.60;99.90
25046;DHT22;13044;49.304;12.840;2022-11-15T06:31:09;3.60;99.90
25046;DHT22;13044;49.304;12.840;2022-11-15T06:33:40;3.60;99.90
25046;DHT22;13044;49.304;12.840;2022-11-15T06:36:10;3.60;99.90
25046;DHT22;13044;49.304;12.840;2022-11-15T06:38:44;3.60;99.90
25046;DHT22;13044;49.304;12.840;2022-11-15T06:41:13;3.60;99.90
25046;DHT22;13044;49.304;12.840;2022-11-15T06:43:41;3.50;99.90
25046;DHT22;13044;49.304;12.840;2022-11-15T06:46:08;3.40;99.90
25046;DHT22;13044;49.304;12.840;2022-11-15T06:48:36;3.50;99.90
25046;DHT22;13044;49.304;12.840;2022-11-15T06:51:04;3.50;99.90
25046;DHT22;13044;49.304;12.840;2022-11-15T06:53:32;3.50;99.90
25046;DHT22;13044;49.304;12.840;2022-11-15T06:56:01;3.50;99.90
25046;DHT22;13044;49.304;12.840;2022-11-15T06:58:29;3.50;99.90
25046;DHT22;13044;49.304;12.840;2022-11-15T07:01:05;3.60;99.90
25046;DHT22;13044;49.304;12.840;2022-11-15T07:03:36;3.60;99.90
25046;DHT22;13044;49.304;12.840;2022-11-15T07:06:04;3.60;99.90
25046;DHT22;13044;49.304;12.840;2022-11-15T07:08:34;3.60;99.90
25046;DHT22;13044;49.304;12.840;2022-11-15T07:11:04;3.60;99.90
25046;DHT22;13044;49.304;12.840;2022-11-15T07:13:33;3.50;99.90
25046;DHT22;13044;49.304;12.840;2022-11-15T07:16:04;3.50;99.90
25046;DHT22;13044;49.304;12.840;2022-11-15T07:18:36;3.50;99.90
25046;DHT22;13044;49.304;12.840;2022-11-15T07:21:06;3.50;99.90
25046;DHT22;13044;49.304;12.840;2022-11-15T07:23:37;3.60;99.90
25046;DHT22;13044;49.304;12.840;2022-11-15T07:26:06;3.60;99.90
25046;DHT22;13044;49.304;12.840;2022-11-15T07:28:34;3.60;99.90
25046;DHT22;13044;49.304;12.840;2022-11-15T07:31:07;3.70;99.90
25046;DHT22;13044;49.304;12.840;2022-11-15T07:33:35;3.70;99.90
25046;DHT22;13044;49.304;12.840;2022-11-15T07:36:04;3.70;99.90
25046;DHT22;13044;49.304;12.840;2022-11-15T07:38:33;3.70;99.90
25046;DHT22;13044;49.304;12.840;2022-11-15T07:41:08;3.70;99.90
25046;DHT22;13044;49.304;12.840;2022-11-15T07:43:35;3.70;99.90
25046;DHT22;13044;49.304;12.840;2022-11-15T07:46:06;3.70;99.90
25046;DHT22;13044;49.304;12.840;2022-11-15T07:48:37;3.80;99.90
25046;DHT22;13044;49.304;12.840;2022-11-15T07:51:14;3.80;99.90
25046;DHT22;13044;49.304;12.840;2022-11-15T07:53:43;3.90;99.90
25046;DHT22;13044;49.304;12.840;2022-11-15T07:56:11;3.90;99.90
25046;DHT22;13044;49.304;12.840;2022-11-15T07:58:39;4.00;99.90
25046;DHT22;13044;49.304;12.840;2022-11-15T08:01:08;4.00;99.90
25046;DHT22;13044;49.304;12.840;2022-11-15T08:03:37;3.90;99.90
25046;DHT22;13044;49.304;12.840;2022-11-15T08:06:04;4.00;99.90
25046;DHT22;13044;49.304;12.840;2022-11-15T08:08:31;4.00;99.90
25046;DHT22;13044;49.304;12.840;2022-11-15T08:10:58;4.00;99.90
25046;DHT22;13044;49.304;12.840;2022-11-15T08:13:26;4.00;99.90
25046;DHT22;13044;49.304;12.840;2022-11-15T08:16:00;4.00;99.90
25046;DHT22;13044;49.304;12.840;2022-11-15T08:18:28;4.10;99.90
25046;DHT22;13044;49.304;12.840;2022-11-15T08:20:59;4.10;99.90
25046;DHT22;13044;49.304;12.840;2022-11-15T08:23:27;4.10;99.90
25046;DHT22;13044;49.304;12.840;2022-11-15T08:26:02;4.10;99.90
25046;DHT22;13044;49.304;12.840;2022-11-15T08:28:30;4.20;99.90
25046;DHT22;13044;49.304;12.840;2022-11-15T08:30:58;4.20;99.90
25046;DHT22;13044;49.304;12.840;2022-11-15T08:33:25;4.20;99.90
25046;DHT22;13044;49.304;12.840;2022-11-15T08:35:52;4.20;99.90
25046;DHT22;13044;49.304;12.840;2022-11-15T08:38:23;4.20;99.90
25046;DHT22;13044;49.304;12.840;2022-11-15T08:40:58;4.30;99.90
25046;DHT22;13044;49.304;12.840;2022-11-15T08:43:30;4.40;99.90
25046;DHT22;13044;49.304;12.840;2022-11-15T08:45:58;4.40;99.90
25046;DHT22;13044;49.304;12.840;2022-11-15T08:48:25;4.40;99.90
25046;DHT22;13044;49.304;12.840;2022-11-15T08:50:56;4.40;99.90
25046;DHT22;13044;49.304;12.840;2022-11-15T08:53:23;4.40;99.90
25046;DHT22;13044;49.304;12.840;2022-11-15T08:55:50;4.40;99.90
25046;DHT22;13044;49.304;12.840;2022-11-15T08:58:17;4.40;99.90
25046;DHT22;13044;49.304;12.840;2022-11-15T09:00:44;4.50;99.90
25046;DHT22;13044;49.304;12.840;2022-11-15T09:03:11;4.50;99.90
25046;DHT22;13044;49.304;12.840;2022-11-15T09:05:38;4.60;99.90
25046;DHT22;13044;49.304;12.840;2022-11-15T09:08:06;4.70;99.90
25046;DHT22;13044;49.304;12.840;2022-11-15T09:10:53;4.80;99.90
25046;DHT22;13044;49.304;12.840;2022-11-15T09:13:19;4.90;99.90
25046;DHT22;13044;49.304;12.840;2022-11-15T09:15:47;4.90;99.90
25046;DHT22;13044;49.304;12.840;2022-11-15T09:18:13;5.00;99.90
25046;DHT22;13044;49.304;12.840;2022-11-15T09:20:40;5.00;99.90
25046;DHT22;13044;49.304;12.840;2022-11-15T09:23:07;5.10;99.90
25046;DHT22;13044;49.304;12.840;2022-11-15T09:25:34;5.20;99.90
25046;DHT22;13044;49.304;12.840;2022-11-15T09:28:06;5.20;99.90
25046;DHT22;13044;49.304;12.840;2022-11-15T09:30:33;5.20;99.90
25046;DHT22;13044;49.304;12.840;2022-11-15T09:33:09;5.20;99.90
25046;DHT22;13044;49.304;12.840;2022-11-15T09:35:38;5.30;99.90
25046;DHT22;13044;49.304;12.840;2022-11-15T09:38:05;5.20;99.90
25046;DHT22;13044;49.304;12.840;2022-11-15T09:40:32;5.20;99.90
25046;DHT22;13044;49.304;12.840;2022-11-15T09:43:22;5.30;99.90
25046;DHT22;13044;49.304;12.840;2022-11-15T09:46:05;5.40;99.90
25046;DHT22;13044;49.304;12.840;2022-11-15T09:48:53;5.40;99.90
25046;DHT22;13044;49.304;12.840;2022-11-15T09:51:36;5.40;99.90
25046;DHT22;13044;49.304;12.840;2022-11-15T09:54:36;5.50;99.90
25046;DHT22;13044;49.304;12.840;2022-11-15T10:03:29;5.60;99.90
25046;DHT22;13044;49.304;12.840;2022-11-15T10:06:04;5.70;99.90
25046;DHT22;13044;49.304;12.840;2022-11-15T10:08:53;5.70;99.90
25046;DHT22;13044;49.304;12.840;2022-11-15T10:11:31;5.70;99.90
25046;DHT22;13044;49.304;12.840;2022-11-15T10:14:12;5.80;99.90
25046;DHT22;13044;49.304;12.840;2022-11-15T10:22:38;6.00;99.90
25046;DHT22;13044;49.304;12.840;2022-11-15T10:25:33;6.00;99.90
25046;DHT22;13044;49.304;12.840;2022-11-15T10:28:11;6.20;99.90
25046;DHT22;13044;49.304;12.840;2022-11-15T10:30:46;6.20;99.90
25046;DHT22;13044;49.304;12.840;2022-11-15T10:33:34;6.30;99.90
25046;DHT22;13044;49.304;12.840;2022-11-15T10:38:53;6.40;99.90
25046;DHT22;13044;49.304;12.840;2022-11-15T10:44:34;6.50;99.90
25046;DHT22;13044;49.304;12.840;2022-11-15T10:47:29;6.50;99.90
25046;DHT22;13044;49.304;12.840;2022-11-15T10:50:27;6.60;99.90
25046;DHT22;13044;49.304;12.840;2022-11-15T10:52:55;6.70;99.90
25046;DHT22;13044;49.304;12.840;2022-11-15T10:55:26;6.70;99.90
25046;DHT22;13044;49.304;12.840;2022-11-15T10:58:04;6.70;99.90
25046;DHT22;13044;49.304;12.840;2022-11-15T11:00:46;6.80;99.90
25046;DHT22;13044;49.304;12.840;2022-11-15T11:08:38;6.90;99.90
25046;DHT22;13044;49.304;12.840;2022-11-15T11:11:06;6.90;99.90
25046;DHT22;13044;49.304;12.840;2022-11-15T11:13:39;6.90;99.90
25046;DHT22;13044;49.304;12.840;2022-11-15T11:16:24;7.00;99.90
25046;DHT22;13044;49.304;12.840;2022-11-15T11:19:10;6.90;99.90
25046;DHT22;13044;49.304;12.840;2022-11-15T11:22:14;7.00;99.90
25046;DHT22;13044;49.304;12.840;2022-11-15T11:25:30;7.10;99.90
25046;DHT22;13044;49.304;12.840;2022-11-15T11:28:33;7.10;99.90
25046;DHT22;13044;49.304;12.840;2022-11-15T11:46:18;7.20;99.90
25046;DHT22;13044;49.304;12.840;2022-11-15T11:49:10;7.20;99.90
25046;DHT22;13044;49.304;12.840;2022-11-15T11:51:43;7.30;99.90
25046;DHT22;13044;49.304;12.840;2022-11-15T12:00:23;7.00;99.90
25046;DHT22;13044;49.304;12.840;2022-11-15T12:05:40;6.90;99.90
25046;DHT22;13044;49.304;12.840;2022-11-15T12:11:12;6.80;99.90
25046;DHT22;13044;49.304;12.840;2022-11-15T12:13:42;6.80;99.90
25046;DHT22;13044;49.304;12.840;2022-11-15T12:16:21;6.80;99.90
25046;DHT22;13044;49.304;12.840;2022-11-15T12:18:52;6.70;99.90
25046;DHT22;13044;49.304;12.840;2022-11-15T12:21:30;6.80;99.90
25046;DHT22;13044;49.304;12.840;2022-11-15T12:29:53;6.90;99.90
25046;DHT22;13044;49.304;12.840;2022-11-15T12:32:37;7.00;99.90
25046;DHT22;13044;49.304;12.840;2022-11-15T12:35:21;7.00;99.90
25046;DHT22;13044;49.304;12.840;2022-11-15T12:37:55;7.20;99.90
25046;DHT22;13044;49.304;12.840;2022-11-15T12:46:02;7.40;99.90
25046;DHT22;13044;49.304;12.840;2022-11-15T12:51:04;7.60;99.90
25046;DHT22;13044;49.304;12.840;2022-11-15T12:53:34;7.70;99.90
25046;DHT22;13044;49.304;12.840;2022-11-15T13:04:23;7.50;99.90
25046;DHT22;13044;49.304;12.840;2022-11-15T13:06:53;7.40;99.90
25046;DHT22;13044;49.304;12.840;2022-11-15T13:12:47;7.30;99.90
25046;DHT22;13044;49.304;12.840;2022-11-15T13:15:37;7.30;99.90
25046;DHT22;13044;49.304;12.840;2022-11-15T13:20:55;7.30;99.90
25046;DHT22;13044;49.304;12.840;2022-11-15T13:23:28;7.20;99.90
25046;DHT22;13044;49.304;12.840;2022-11-15T13:26:09;7.20;99.90
25046;DHT22;13044;49.304;12.840;2022-11-15T13:28:47;7.20;99.90
25046;DHT22;13044;49.304;12.840;2022-11-15T13:33:46;7.10;99.90
25046;DHT22;13044;49.304;12.840;2022-11-15T13:36:20;7.10;99.90
25046;DHT22;13044;49.304;12.840;2022-11-15T13:39:04;7.10;99.90
25046;DHT22;13044;49.304;12.840;2022-11-15T13:41:35;7.10;99.90
25046;DHT22;13044;49.304;12.840;2022-11-15T13:44:04;7.00;99.90
25046;DHT22;13044;49.304;12.840;2022-11-15T13:46:46;7.00;99.90
25046;DHT22;13044;49.304;12.840;2022-11-15T13:49:13;6.90;99.90
25046;DHT22;13044;49.304;12.840;2022-11-15T13:51:49;6.90;99.90
25046;DHT22;13044;49.304;12.840;2022-11-15T13:54:43;6.90;99.90
25046;DHT22;13044;49.304;12.840;2022-11-15T13:57:23;6.80;99.90
25046;DHT22;13044;49.304;12.840;2022-11-15T14:00:03;6.80;99.90
25046;DHT22;13044;49.304;12.840;2022-11-15T14:02:35;6.90;99.90
25046;DHT22;13044;49.304;12.840;2022-11-15T14:07:39;7.00;99.90
25046;DHT22;13044;49.304;12.840;2022-11-15T14:12:56;7.00;99.90
25046;DHT22;13044;49.304;12.840;2022-11-15T14:15:37;6.90;99.90
25046;DHT22;13044;49.304;12.840;2022-11-15T14:18:05;6.90;99.90
25046;DHT22;13044;49.304;12.840;2022-11-15T14:20:35;6.80;99.90
25046;DHT22;13044;49.304;12.840;2022-11-15T14:23:26;6.70;99.90
25046;DHT22;13044;49.304;12.840;2022-11-15T14:25:57;6.60;99.90
25046;DHT22;13044;49.304;12.840;2022-11-15T14:30:54;6.60;99.90
25046;DHT22;13044;49.304;12.840;2022-11-15T14:38:38;6.50;99.90
25046;DHT22;13044;49.304;12.840;2022-11-15T14:41:05;6.50;99.90
25046;DHT22;13044;49.304;12.840;2022-11-15T14:43:32;6.50;99.90
25046;DHT22;13044;49.304;12.840;2022-11-15T14:45:59;6.40;99.90
25046;DHT22;13044;49.304;12.840;2022-11-15T14:48:26;6.40;99.90
25046;DHT22;13044;49.304;12.840;2022-11-15T14:50:53;6.40;99.90
25046;DHT22;13044;49.304;12.840;2022-11-15T14:53:20;6.40;99.90
25046;DHT22;13044;49.304;12.840;2022-11-15T14:55:49;6.40;99.90
25046;DHT22;13044;49.304;12.840;2022-11-15T14:58:15;6.40;99.90
25046;DHT22;13044;49.304;12.840;2022-11-15T15:00:42;6.30;99.90
25046;DHT22;13044;49.304;12.840;2022-11-15T15:03:09;6.30;99.90
25046;DHT22;13044;49.304;12.840;2022-11-15T15:05:43;6.20;99.90
25046;DHT22;13044;49.304;12.840;2022-11-15T15:08:11;6.20;99.90
25046;DHT22;13044;49.304;12.840;2022-11-15T15:10:41;6.20;99.90
25046;DHT22;13044;49.304;12.840;2022-11-15T15:13:21;6.20;99.90
25046;DHT22;13044;49.304;12.840;2022-11-15T15:15:51;6.20;99.90
25046;DHT22;13044;49.304;12.840;2022-11-15T15:18:19;6.20;99.90
25046;DHT22;13044;49.304;12.840;2022-11-15T15:20:53;6.20;99.90
25046;DHT22;13044;49.304;12.840;2022-11-15T15:23:24;6.20;99.90
25046;DHT22;13044;49.304;12.840;2022-11-15T15:25:55;6.10;99.90
25046;DHT22;13044;49.304;12.840;2022-11-15T15:28:22;6.10;99.90
25046;DHT22;13044;49.304;12.840;2022-11-15T15:30:49;6.00;99.90
25046;DHT22;13044;49.304;12.840;2022-11-15T15:33:16;6.00;99.90
25046;DHT22;13044;49.304;12.840;2022-11-15T15:35:43;5.90;99.90
25046;DHT22;13044;49.304;12.840;2022-11-15T15:38:11;5.90;99.90
25046;DHT22;13044;49.304;12.840;2022-11-15T15:40:39;5.90;99.90
25046;DHT22;13044;49.304;12.840;2022-11-15T15:43:05;5.90;99.90
25046;DHT22;13044;49.304;12.840;2022-11-15T15:45:40;5.90;99.90
25046;DHT22;13044;49.304;12.840;2022-11-15T15:48:13;5.90;99.90
25046;DHT22;13044;49.304;12.840;2022-11-15T15:50:41;5.90;99.90
25046;DHT22;13044;49.304;12.840;2022-11-15T15:53:12;5.90;99.90
25046;DHT22;13044;49.304;12.840;2022-11-15T15:55:39;5.80;99.90
25046;DHT22;13044;49.304;12.840;2022-11-15T15:58:06;5.80;99.90
25046;DHT22;13044;49.304;12.840;2022-11-15T16:00:34;5.80;99.90
25046;DHT22;13044;49.304;12.840;2022-11-15T16:03:01;5.80;99.90
25046;DHT22;13044;49.304;12.840;2022-11-15T16:05:28;5.80;99.90
25046;DHT22;13044;49.304;12.840;2022-11-15T16:07:55;5.80;99.90
25046;DHT22;13044;49.304;12.840;2022-11-15T16:12:52;5.80;99.90
25046;DHT22;13044;49.304;12.840;2022-11-15T16:15:21;5.80;99.90
25046;DHT22;13044;49.304;12.840;2022-11-15T16:17:57;5.80;99.90
25046;DHT22;13044;49.304;12.840;2022-11-15T16:20:39;5.80;99.90
25046;DHT22;13044;49.304;12.840;2022-11-15T16:23:11;5.80;99.90
25046;DHT22;13044;49.304;12.840;2022-11-15T16:25:43;5.80;99.90
25046;DHT22;13044;49.304;12.840;2022-11-15T16:28:31;5.80;99.90
25046;DHT22;13044;49.304;12.840;2022-11-15T16:31:09;5.80;99.90
25046;DHT22;13044;49.304;12.840;2022-11-15T16:33:37;5.80;99.90
25046;DHT22;13044;49.304;12.840;2022-11-15T16:36:12;5.80;99.90
25046;DHT22;13044;49.304;12.840;2022-11-15T16:38:56;5.70;99.90
25046;DHT22;13044;49.304;12.840;2022-11-15T16:41:24;5.70;99.90
25046;DHT22;13044;49.304;12.840;2022-11-15T16:43:52;5.70;99.90
25046;DHT22;13044;49.304;12.840;2022-11-15T16:46:28;5.70;99.90
25046;DHT22;13044;49.304;12.840;2022-11-15T16:48:55;5.80;99.90
25046;DHT22;13044;49.304;12.840;2022-11-15T16:51:23;5.70;99.90
